Time;durP1;ratioP1;P1;durP2;ratioP2;P2;SDS_P1;SDS_P2;PMS_P1;PMS_P2;Temp;Humidity;BMP_temperature;BMP_pressure;BME280_temperature;BME280_humidity;BME280_pressure;Samples;Min_cycle;Max_cycle;Signal;HPM_P1;HPM_P2
2023/06/08 00:10:46;;;;;;;6.78;4.18;;;;;;;24.01;78.21;100677.91;31619607;27;20062;-75
2023/06/08 00:25:48;;;;;;;5.78;2.80;;;;;;;23.76;78.27;100678.78;31619066;28;20051;-74
2023/06/08 00:40:50;;;;;;;6.80;2.67;;;;;;;23.66;78.77;100674.69;31658946;28;20063;-75
2023/06/08 00:55:54;;;;;;;9.18;2.95;;;;;;;24.02;75.74;100668.31;31624119;27;20492;-75
2023/06/08 01:11:08;;;;;;;7.40;3.43;;;;;;;24.77;70.13;100666.78;31649211;28;20143;-75
2023/06/08 01:26:15;;;;;;;7.20;3.50;;;;;;;24.53;70.24;100677.59;31611256;28;20292;-75
2023/06/08 01:41:24;;;;;;;6.22;3.28;;;;;;;24.56;69.69;100667.53;31631275;28;20106;-75
2023/06/08 01:56:30;;;;;;;9.77;3.75;;;;;;;24.42;74.42;100667.22;31651064;28;20621;-74
2023/06/08 02:11:32;;;;;;;5.82;3.53;;;;;;;24.23;84.37;100662.59;31648059;28;20082;-76
2023/06/08 02:26:34;;;;;;;7.25;4.40;;;;;;;23.91;99.24;100657.16;31681295;27;20504;-76
2023/06/08 02:41:37;;;;;;;7.55;4.78;;;;;;;24.02;100.00;100651.69;31665942;27;20135;-75
2023/06/08 02:56:39;;;;;;;11.27;5.22;;;;;;;24.23;100.00;100648.72;31671139;27;20048;-74
2023/06/08 03:11:41;;;;;;;7.50;5.22;;;;;;;24.30;100.00;100653.84;31636244;28;20656;-75
2023/06/08 03:26:43;;;;;;;11.80;5.20;;;;;;;24.49;100.00;100665.97;31658516;28;20500;-75
2023/06/08 03:41:45;;;;;;;6.35;4.00;;;;;;;24.87;100.00;100680.41;31661673;27;20139;-75
2023/06/08 03:56:47;;;;;;;5.85;3.58;;;;;;;25.13;93.01;100683.75;31656168;27;20511;-75
2023/06/08 04:11:49;;;;;;;6.57;3.10;;;;;;;25.31;85.90;100694.34;31650654;28;20071;-75
2023/06/08 04:26:51;;;;;;;6.70;3.70;;;;;;;25.71;81.04;100700.63;31644736;28;20138;-75
2023/06/08 04:41:55;;;;;;;9.82;3.53;;;;;;;25.96;78.98;100699.56;31639507;28;20505;-75
2023/06/08 04:56:58;;;;;;;7.47;3.85;;;;;;;26.09;79.93;100708.09;31645174;27;20048;-76
2023/06/08 05:12:00;;;;;;;;;;;;;;;26.86;87.36;100707.47;31650170;28;20055;-76
2023/06/08 05:27:02;;;;;;;10.00;4.72;;;;;;;26.83;84.93;100721.16;31654469;28;20412;-76
2023/06/08 05:42:05;;;;;;;10.03;4.80;;;;;;;27.99;74.71;100719.91;31627987;28;20063;-75
2023/06/08 05:57:07;;;;;;;8.45;4.35;;;;;;;29.08;58.15;100731.41;31658673;27;20139;-76
2023/06/08 06:12:09;;;;;;;9.43;4.17;;;;;;;29.99;50.61;100730.09;31667146;28;20074;-76
2023/06/08 06:27:12;;;;;;;9.50;3.97;;;;;;;30.05;46.97;100730.72;31640314;28;20048;-78
2023/06/08 06:42:15;;;;;;;7.87;3.30;;;;;;;30.24;46.01;100713.78;31651580;28;20407;-76
2023/06/08 06:57:17;;;;;;;8.75;3.00;;;;;;;31.01;45.07;100712.59;31652409;28;20040;-76
2023/06/08 07:12:19;;;;;;;3.50;2.17;;;;;;;31.34;41.15;100706.19;31673797;28;20051;-76
2023/06/08 07:27:21;;;;;;;3.42;2.00;;;;;;;31.44;38.23;100707.19;31653864;28;20054;-76
2023/06/08 07:42:23;;;;;;;3.22;1.95;;;;;;;31.44;36.08;100707.19;31622678;27;20082;-75
2023/06/08 07:57:26;;;;;;;2.58;1.60;;;;;;;31.98;35.86;100708.28;31634251;27;20126;-76
2023/06/08 08:12:28;;;;;;;4.18;1.55;;;;;;;31.94;33.69;100712.75;31675860;28;20067;-87
2023/06/08 08:27:30;;;;;;;2.72;1.50;;;;;;;31.79;32.30;100707.81;31649063;27;20138;-80
2023/06/08 08:42:37;;;;;;;2.70;1.25;;;;;;;31.82;31.83;100707.47;31678804;28;20051;-78
2023/06/08 08:57:39;;;;;;;4.30;1.70;;;;;;;31.87;31.15;100697.41;31659869;28;20060;-81
2023/06/08 09:12:46;;;;;;;2.20;1.60;;;;;;;32.51;31.35;100690.91;31622146;28;20090;-77
2023/06/08 09:27:48;;;;;;;2.42;1.30;;;;;;;33.42;30.40;100685.41;31696158;28;20044;-88
2023/06/08 09:42:50;;;;;;;4.10;1.60;;;;;;;34.11;29.05;100668.31;31674196;28;20055;-88
2023/06/08 09:57:53;;;;;;;2.92;1.42;;;;;;;35.07;28.92;100657.59;31696339;28;20054;-86
2023/06/08 10:12:59;;;;;;;2.90;1.38;;;;;;;36.06;28.69;100639.59;31718974;27;20109;-85
2023/06/08 10:28:07;;;;;;;2.88;1.20;;;;;;;36.12;27.73;100638.03;31686733;28;20120;-88
2023/06/08 10:43:09;;;;;;;3.33;1.27;;;;;;;36.03;28.42;100621.00;31663282;28;20054;-85
2023/06/08 10:58:50;;;;;;;1.83;1.20;;;;;;;36.52;25.99;100619.94;31722820;28;20044;-91
2023/06/08 11:13:52;;;;;;;4.30;1.60;;;;;;;35.53;27.39;100610.66;31702538;28;20112;-79
2023/06/08 11:28:55;;;;;;;1.80;1.10;;;;;;;33.40;28.51;100597.97;31653092;28;20051;-79
2023/06/08 11:43:57;;;;;;;3.35;1.45;;;;;;;32.26;29.61;100586.72;31639410;28;20044;-82
2023/06/08 11:59:01;;;;;;;3.25;1.70;;;;;;;31.75;30.87;100578.31;31712749;28;20515;-82
2023/06/08 12:14:36;;;;;;;5.75;1.67;;;;;;;31.74;31.49;100574.00;31645196;28;20421;-82
2023/06/08 12:29:40;;;;;;;7.13;1.40;;;;;;;31.60;32.45;100561.41;31668720;28;20060;-84
2023/06/08 12:44:43;;;;;;;3.72;1.70;;;;;;;31.82;32.39;100555.16;31615188;28;20083;-76
2023/06/08 12:59:45;;;;;;;6.13;1.83;;;;;;;31.49;33.29;100528.78;31654355;28;20090;-79
2023/06/08 13:14:48;;;;;;;9.02;1.95;;;;;;;31.27;34.05;100530.19;31686046;28;20096;-85
2023/06/08 13:29:50;;;;;;;2.95;1.83;;;;;;;31.18;33.98;100509.00;31651260;28;20470;-80
2023/06/08 13:44:54;;;;;;;4.80;1.83;;;;;;;31.19;34.17;100501.34;31656564;28;20059;-82
2023/06/08 13:59:57;;;;;;;5.35;1.90;;;;;;;30.81;33.92;100485.03;31645992;28;20043;-85
2023/06/08 14:15:04;;;;;;;3.78;1.60;;;;;;;31.05;34.05;100471.91;31709906;28;20054;-86
2023/06/08 14:30:07;;;;;;;7.07;1.83;;;;;;;30.64;34.09;100447.56;31698327;28;20079;-88
2023/06/08 14:45:10;;;;;;;3.28;1.55;;;;;;;30.47;33.84;100442.41;31698039;28;20497;-86
2023/06/08 15:00:13;;;;;;;3.05;1.65;;;;;;;30.57;33.68;100435.00;31684242;28;20496;-85
2023/06/08 15:15:15;;;;;;;4.70;1.60;;;;;;;30.50;34.08;100427.28;31671419;28;20051;-78
2023/06/08 15:30:18;;;;;;;3.05;1.50;;;;;;;30.29;34.28;100418.16;31645297;28;20058;-85
2023/06/08 15:45:20;;;;;;;3.72;1.83;;;;;;;30.36;34.35;100401.41;31713257;28;20051;-81
2023/06/08 16:00:23;;;;;;;4.05;1.55;;;;;;;30.25;33.53;100412.16;31688357;28;20063;-81
2023/06/08 16:15:26;;;;;;;5.43;2.05;;;;;;;30.13;34.29;100387.25;31770698;28;20071;-89
2023/06/08 16:30:30;;;;;;;6.97;2.05;;;;;;;29.74;34.97;100384.66;31812254;28;20409;-82
2023/06/08 16:45:32;;;;;;;4.82;2.08;;;;;;;29.57;35.48;100387.09;31667042;28;20048;-81
2023/06/08 17:00:34;;;;;;;;;;;;;;;29.76;35.30;100401.66;31665149;28;20408;-83
2023/06/08 17:35:59;;;;;;;3.53;2.22;;;;;;;29.59;36.89;100409.66;38804471;22;1517494;-85
2023/06/08 17:51:01;;;;;;;4.22;2.15;;;;;;;28.75;38.24;100428.16;38882740;23;20020;-89
2023/06/08 18:06:06;;;;;;;4.32;2.42;;;;;;;28.45;38.72;100448.75;38889428;23;20019;-89
2023/06/08 18:21:25;;;;;;;4.55;2.78;;;;;;;28.23;38.71;100442.81;38828965;23;20020;-83
2023/06/08 18:36:28;;;;;;;5.57;3.13;;;;;;;28.04;39.13;100446.38;38780571;23;20026;-87
2023/06/08 18:51:34;;;;;;;;;;;;;;;27.89;39.06;100443.31;38780441;23;20016;-91
2023/06/08 19:22:22;;;;;;;6.38;2.35;;;;;;;27.12;40.84;100429.91;38902508;22;20020;-89
2023/06/08 19:37:32;;;;;;;3.57;2.50;;;;;;;26.96;41.70;100435.69;38811562;23;20373;-87
2023/06/08 19:52:35;;;;;;;5.72;3.08;;;;;;;26.63;41.86;100429.19;38752063;23;20020;-89
2023/06/08 20:07:48;;;;;;;7.40;3.40;;;;;;;26.79;41.84;100436.59;38781711;23;20058;-88
2023/06/08 20:23:49;;;;;;;;;;;;;;;;;;;;;
2023/06/08 20:39:09;;;;;;;;;;;;;;;;;;;;;
2023/06/08 20:54:52;;;;;;;9.13;3.60;;;;;;;26.71;44.13;100437.69;38831299;23;20020;-91
2023/06/08 21:10:58;;;;;;;12.30;5.50;;;;;;;26.48;46.60;100442.72;38810624;22;20047;-92
2023/06/08 21:27:23;;;;;;;;;;;;;;;;;;;;;
2023/06/08 21:42:45;;;;;;;10.20;5.97;;;;;;;25.79;48.75;100431.88;38695752;23;20044;-90
2023/06/08 21:57:55;;;;;;;9.50;5.75;;;;;;;25.79;51.98;100431.88;38808323;23;20091;-91
2023/06/08 22:12:57;;;;;;;8.30;5.03;;;;;;;25.29;53.93;100413.44;38843886;23;20027;-90
2023/06/08 22:28:03;;;;;;;16.00;5.35;;;;;;;25.21;56.66;100412.50;38816914;23;20020;-91
2023/06/08 22:43:09;;;;;;;13.63;5.25;;;;;;;25.13;58.19;100405.97;38803985;23;20338;-90
2023/06/08 22:58:11;;;;;;;12.98;4.63;;;;;;;24.78;62.44;100404.56;38812983;23;20027;-88
2023/06/08 23:13:14;;;;;;;21.27;6.55;;;;;;;24.76;65.40;100382.09;38802645;23;20004;-89
2023/06/08 23:28:16;;;;;;;13.75;6.68;;;;;;;24.19;73.15;100387.47;38802421;23;20469;-89
2023/06/08 23:43:18;;;;;;;15.68;5.90;;;;;;;23.91;76.81;100382.69;38822101;22;20085;-93
2023/06/08 23:58:23;;;;;;;16.73;5.75;;;;;;;24.19;74.07;100360.50;38815689;22;20000;-92
